PWSweather.com
Personal Weather Stations
Station Observations
LEONMETEO
LeonES 24008

LeonES 24008

Lat: 42.6055559, Lon: -5.5752249

Elevation: 2690

Station Type: La Crosse WS3600

Latest ConditionsUpdated 7:06:39 PM GMT+01:01 Sunday, Sep 21, 2014
Currently Today's Max Today's Min Today's Average
Temperature 72.3°F22.4°C 76.6°F24.8°C 51.0°F10.6°C 61.9°F16.6°C
Dew Point 53.6°F12.0°C 56.5°F13.6°C 44.8°F7.1°C 50.2°F10.1°C
Winds - N16091.8 kmh N Calm Calm - Calm Calm
Wind Gusts -- -- - -
Humidity 53% 80% 47% 67%
Pressure 29.83 in1010.2 mb 29.94 in1013.9 mb 29.82 in1009.8 mb -
Hour Temp Dew Point Humidity Winds Wind Gusts Pressure Precip Precip Rate Daily Precip Total
07:06 PM 72.3°F22.4°C 53.6°F12.0°C 53% - N16091.8 kmh N -- 29.83 in1010.2 mb 0.00 in0.0 mm 0.00 in/hr0.0 mm/hr 0.00 in0.0 mm
07:01 PM 72.6°F22.6°C 53.9°F12.2°C 52% - N16091.8 kmh N -- 29.83 in1010.2 mb 0.00 in0.0 mm 0.00 in/hr0.0 mm/hr 0.00 in0.0 mm
06:56 PM 72.6°F22.6°C 53.9°F12.2°C 52% - N16091.8 kmh N -- 29.83 in1010.2 mb 0.00 in0.0 mm 0.00 in/hr0.0 mm/hr 0.00 in0.0 mm
06:51 PM 73.0°F22.8°C 53.7°F12.1°C 51% - N16091.8 kmh N -- 29.83 in1010.2 mb 0.00 in0.0 mm 0.00 in/hr0.0 mm/hr 0.00 in0.0 mm
06:46 PM 73.2°F22.9°C 53.9°F12.2°C 51% - N16091.8 kmh N -- 29.83 in1010.2 mb 0.00 in0.0 mm 0.00 in/hr0.0 mm/hr 0.00 in0.0 mm
06:41 PM 73.5°F23.1°C 53.7°F12.1°C 51% - N16091.8 kmh N -- 29.83 in1010.2 mb 0.00 in0.0 mm 0.00 in/hr0.0 mm/hr 0.00 in0.0 mm
06:36 PM 73.7°F23.2°C 53.9°F12.2°C 50% - N16091.8 kmh N -- 29.83 in1010.2 mb 0.00 in0.0 mm 0.00 in/hr0.0 mm/hr 0.00 in0.0 mm
06:31 PM 74.1°F23.4°C 53.7°F12.1°C 50% - N16091.8 kmh N -- 29.83 in1010.2 mb 0.00 in0.0 mm 0.00 in/hr0.0 mm/hr 0.00 in0.0 mm
06:26 PM 74.1°F23.4°C 53.7°F12.1°C 49% - N16091.8 kmh N -- 29.83 in1010.2 mb 0.00 in0.0 mm 0.00 in/hr0.0 mm/hr 0.00 in0.0 mm
06:21 PM 74.6°F23.7°C 54.2°F12.3°C 49% - N16091.8 kmh N -- 29.83 in1010.2 mb 0.00 in0.0 mm 0.00 in/hr0.0 mm/hr 0.00 in0.0 mm
06:16 PM 75.0°F23.9°C 54.0°F12.2°C 48% - N16091.8 kmh N -- 29.83 in1010.2 mb 0.00 in0.0 mm 0.00 in/hr0.0 mm/hr 0.00 in0.0 mm
06:11 PM 75.3°F24.1°C 53.7°F12.1°C 47% - N16091.8 kmh N -- 29.83 in1010.2 mb 0.00 in0.0 mm 0.00 in/hr0.0 mm/hr 0.00 in0.0 mm
06:06 PM 75.3°F24.1°C 53.7°F12.1°C 47% - N16091.8 kmh N -- 29.83 in1010.2 mb 0.00 in0.0 mm 0.00 in/hr0.0 mm/hr 0.00 in0.0 mm
06:01 PM 75.7°F24.3°C 54.6°F12.6°C 47% - N16091.8 kmh N -- 29.83 in1010.2 mb 0.00 in0.0 mm 0.00 in/hr0.0 mm/hr 0.00 in0.0 mm
05:56 PM 75.7°F24.3°C 54.6°F12.6°C 47% - N16091.8 kmh N -- 29.83 in1010.2 mb 0.00 in0.0 mm 0.00 in/hr0.0 mm/hr 0.00 in0.0 mm
05:51 PM 75.7°F24.3°C 54.6°F12.6°C 47% - N16091.8 kmh N -- 29.82 in1009.8 mb 0.00 in0.0 mm 0.00 in/hr0.0 mm/hr 0.00 in0.0 mm
05:46 PM 75.7°F24.3°C 54.6°F12.6°C 48% - N16091.8 kmh N -- 29.82 in1009.8 mb 0.00 in0.0 mm 0.00 in/hr0.0 mm/hr 0.00 in0.0 mm
05:41 PM 75.5°F24.2°C 53.8°F12.1°C 48% - N16091.8 kmh N -- 29.82 in1009.8 mb 0.00 in0.0 mm 0.00 in/hr0.0 mm/hr 0.00 in0.0 mm
05:36 PM 75.5°F24.2°C 53.8°F12.1°C 47% - N16091.8 kmh N -- 29.82 in1009.8 mb 0.00 in0.0 mm 0.00 in/hr0.0 mm/hr 0.00 in0.0 mm
05:30 PM 75.7°F24.3°C 54.0°F12.2°C 47% - N16091.8 kmh N -- 29.82 in1009.8 mb 0.00 in0.0 mm 0.00 in/hr0.0 mm/hr 0.00 in0.0 mm
05:26 PM 75.9°F24.4°C 54.2°F12.3°C 47% - N16091.8 kmh N -- 29.82 in1009.8 mb 0.00 in0.0 mm 0.00 in/hr0.0 mm/hr 0.00 in0.0 mm
05:21 PM 76.2°F24.6°C 54.5°F12.5°C 47% - N16091.8 kmh N -- 29.82 in1009.8 mb 0.00 in0.0 mm 0.00 in/hr0.0 mm/hr 0.00 in0.0 mm
05:15 PM 76.4°F24.7°C 54.7°F12.6°C 47% - N16091.8 kmh N -- 29.82 in1009.8 mb 0.00 in0.0 mm 0.00 in/hr0.0 mm/hr 0.00 in0.0 mm
05:10 PM 76.6°F24.8°C 54.8°F12.7°C 47% - N16091.8 kmh N -- 29.82 in1009.8 mb 0.00 in0.0 mm 0.00 in/hr0.0 mm/hr 0.00 in0.0 mm
05:05 PM 76.6°F24.8°C 54.8°F12.7°C 47% - N16091.8 kmh N -- 29.82 in1009.8 mb 0.00 in0.0 mm 0.00 in/hr0.0 mm/hr 0.00 in0.0 mm
05:01 PM 76.6°F24.8°C 54.8°F12.7°C 47% - N16091.8 kmh N -- 29.82 in1009.8 mb 0.00 in0.0 mm 0.00 in/hr0.0 mm/hr 0.00 in0.0 mm
04:56 PM 76.6°F24.8°C 55.4°F13.0°C 47% - N16091.8 kmh N -- 29.82 in1009.8 mb 0.00 in0.0 mm 0.00 in/hr0.0 mm/hr 0.00 in0.0 mm
04:50 PM 76.6°F24.8°C 55.4°F13.0°C 47% - N16091.8 kmh N -- 29.82 in1009.8 mb 0.00 in0.0 mm 0.00 in/hr0.0 mm/hr 0.00 in0.0 mm
04:45 PM 76.6°F24.8°C 55.4°F13.0°C 47% - N16091.8 kmh N -- 29.83 in1010.2 mb 0.00 in0.0 mm 0.00 in/hr0.0 mm/hr 0.00 in0.0 mm
04:40 PM 76.6°F24.8°C 55.4°F13.0°C 48% - N16091.8 kmh N -- 29.83 in1010.2 mb 0.00 in0.0 mm 0.00 in/hr0.0 mm/hr 0.00 in0.0 mm
04:35 PM 76.6°F24.8°C 55.4°F13.0°C 48% - N16091.8 kmh N -- 29.83 in1010.2 mb 0.00 in0.0 mm 0.00 in/hr0.0 mm/hr 0.00 in0.0 mm
04:30 PM 76.6°F24.8°C 55.4°F13.0°C 48% - N16091.8 kmh N -- 29.83 in1010.2 mb 0.00 in0.0 mm 0.00 in/hr0.0 mm/hr 0.00 in0.0 mm
04:25 PM 76.4°F24.7°C 55.9°F13.3°C 49% - N16091.8 kmh N -- 29.83 in1010.2 mb 0.00 in0.0 mm 0.00 in/hr0.0 mm/hr 0.00 in0.0 mm
04:20 PM 76.2°F24.6°C 55.7°F13.2°C 49% - N16091.8 kmh N -- 29.84 in1010.5 mb 0.00 in0.0 mm 0.00 in/hr0.0 mm/hr 0.00 in0.0 mm
04:15 PM 76.1°F24.5°C 55.6°F13.1°C 49% - N16091.8 kmh N -- 29.84 in1010.5 mb 0.00 in0.0 mm 0.00 in/hr0.0 mm/hr 0.00 in0.0 mm
04:10 PM 75.9°F24.4°C 55.4°F13.0°C 49% - N16091.8 kmh N -- 29.84 in1010.5 mb 0.00 in0.0 mm 0.00 in/hr0.0 mm/hr 0.00 in0.0 mm
04:05 PM 75.7°F24.3°C 55.2°F12.9°C 49% - N16091.8 kmh N -- 29.84 in1010.5 mb 0.00 in0.0 mm 0.00 in/hr0.0 mm/hr 0.00 in0.0 mm
04:00 PM 75.3°F24.1°C 55.5°F13.1°C 49% - N16091.8 kmh N -- 29.84 in1010.5 mb 0.00 in0.0 mm 0.00 in/hr0.0 mm/hr 0.00 in0.0 mm
03:55 PM 75.2°F24.0°C 55.4°F13.0°C 50% - N16091.8 kmh N -- 29.85 in1010.8 mb 0.00 in0.0 mm 0.00 in/hr0.0 mm/hr 0.00 in0.0 mm
03:50 PM 74.8°F23.8°C 55.0°F12.8°C 50% - N16091.8 kmh N -- 29.85 in1010.8 mb 0.00 in0.0 mm 0.00 in/hr0.0 mm/hr 0.00 in0.0 mm
03:45 PM 74.8°F23.8°C 55.0°F12.8°C 50% - N16091.8 kmh N -- 29.85 in1010.8 mb 0.00 in0.0 mm 0.00 in/hr0.0 mm/hr 0.00 in0.0 mm
03:40 PM 74.8°F23.8°C 55.5°F13.1°C 51% - N16091.8 kmh N -- 29.85 in1010.8 mb 0.00 in0.0 mm 0.00 in/hr0.0 mm/hr 0.00 in0.0 mm
03:35 PM 75.2°F24.0°C 55.9°F13.3°C 51% - N16091.8 kmh N -- 29.85 in1010.8 mb 0.00 in0.0 mm 0.00 in/hr0.0 mm/hr 0.00 in0.0 mm
03:30 PM 75.3°F24.1°C 56.0°F13.3°C 51% - N16091.8 kmh N -- 29.85 in1010.8 mb 0.00 in0.0 mm 0.00 in/hr0.0 mm/hr 0.00 in0.0 mm
03:25 PM 75.0°F23.9°C 56.2°F13.4°C 51% - N16091.8 kmh N -- 29.86 in1011.2 mb 0.00 in0.0 mm 0.00 in/hr0.0 mm/hr 0.00 in0.0 mm
03:20 PM 74.8°F23.8°C 56.0°F13.3°C 52% - N16091.8 kmh N -- 29.86 in1011.2 mb 0.00 in0.0 mm 0.00 in/hr0.0 mm/hr 0.00 in0.0 mm
03:15 PM 75.0°F23.9°C 56.2°F13.4°C 52% - N16091.8 kmh N -- 29.86 in1011.2 mb 0.00 in0.0 mm 0.00 in/hr0.0 mm/hr 0.00 in0.0 mm
03:10 PM 74.8°F23.8°C 56.0°F13.3°C 52% - N16091.8 kmh N -- 29.86 in1011.2 mb 0.00 in0.0 mm 0.00 in/hr0.0 mm/hr 0.00 in0.0 mm
03:05 PM 74.8°F23.8°C 56.5°F13.6°C 52% - N16091.8 kmh N -- 29.86 in1011.2 mb 0.00 in0.0 mm 0.00 in/hr0.0 mm/hr 0.00 in0.0 mm
03:00 PM 74.6°F23.7°C 56.3°F13.5°C 53% - N16091.8 kmh N -- 29.86 in1011.2 mb 0.00 in0.0 mm 0.00 in/hr0.0 mm/hr 0.00 in0.0 mm
02:54 PM 74.4°F23.6°C 56.1°F13.4°C 53% - N16091.8 kmh N -- 29.86 in1011.2 mb 0.00 in0.0 mm 0.00 in/hr0.0 mm/hr 0.00 in0.0 mm
02:50 PM 74.1°F23.4°C 55.8°F13.2°C 53% - N16091.8 kmh N -- 29.86 in1011.2 mb 0.00 in0.0 mm 0.00 in/hr0.0 mm/hr 0.00 in0.0 mm
02:44 PM 73.9°F23.3°C 55.6°F13.1°C 53% - N16091.8 kmh N -- 29.86 in1011.2 mb 0.00 in0.0 mm 0.00 in/hr0.0 mm/hr 0.00 in0.0 mm
02:39 PM 73.7°F23.2°C 55.4°F13.0°C 53% - N16091.8 kmh N -- 29.86 in1011.2 mb 0.00 in0.0 mm 0.00 in/hr0.0 mm/hr 0.00 in0.0 mm
02:34 PM 73.7°F23.2°C 55.4°F13.0°C 53% - N16091.8 kmh N -- 29.87 in1011.5 mb 0.00 in0.0 mm 0.00 in/hr0.0 mm/hr 0.00 in0.0 mm
02:29 PM 73.5°F23.1°C 55.7°F13.2°C 53% - N16091.8 kmh N -- 29.87 in1011.5 mb 0.00 in0.0 mm 0.00 in/hr0.0 mm/hr 0.00 in0.0 mm
02:24 PM 73.5°F23.1°C 55.7°F13.2°C 54% - N16091.8 kmh N -- 29.88 in1011.9 mb 0.00 in0.0 mm 0.00 in/hr0.0 mm/hr 0.00 in0.0 mm
02:20 PM 73.2°F22.9°C 55.4°F13.0°C 54% - N16091.8 kmh N -- 29.88 in1011.9 mb 0.00 in0.0 mm 0.00 in/hr0.0 mm/hr 0.00 in0.0 mm
02:14 PM 73.0°F22.8°C 55.7°F13.2°C 54% - N16091.8 kmh N -- 29.88 in1011.9 mb 0.00 in0.0 mm 0.00 in/hr0.0 mm/hr 0.00 in0.0 mm
02:09 PM 73.0°F22.8°C 55.7°F13.2°C 55% - N16091.8 kmh N -- 29.88 in1011.9 mb 0.00 in0.0 mm 0.00 in/hr0.0 mm/hr 0.00 in0.0 mm
02:04 PM 72.5°F22.5°C 55.8°F13.2°C 56% - N16091.8 kmh N -- 29.88 in1011.9 mb 0.00 in0.0 mm 0.00 in/hr0.0 mm/hr 0.00 in0.0 mm
01:59 PM 72.1°F22.3°C 55.4°F13.0°C 56% - N16091.8 kmh N -- 29.88 in1011.9 mb 0.00 in0.0 mm 0.00 in/hr0.0 mm/hr 0.00 in0.0 mm
01:54 PM 71.7°F22.1°C 55.6°F13.1°C 56% - N16091.8 kmh N -- 29.88 in1011.9 mb 0.00 in0.0 mm 0.00 in/hr0.0 mm/hr 0.00 in0.0 mm
01:49 PM 71.2°F21.8°C 55.1°F12.8°C 57% - N16091.8 kmh N -- 29.89 in1012.2 mb 0.00 in0.0 mm 0.00 in/hr0.0 mm/hr 0.00 in0.0 mm
01:44 PM 71.0°F21.7°C 55.0°F12.8°C 57% - N16091.8 kmh N -- 29.89 in1012.2 mb 0.00 in0.0 mm 0.00 in/hr0.0 mm/hr 0.00 in0.0 mm
01:39 PM 70.7°F21.5°C 54.7°F12.6°C 57% - N16091.8 kmh N -- 29.89 in1012.2 mb 0.00 in0.0 mm 0.00 in/hr0.0 mm/hr 0.00 in0.0 mm
01:34 PM 70.3°F21.3°C 54.8°F12.7°C 58% - N16091.8 kmh N -- 29.89 in1012.2 mb 0.00 in0.0 mm 0.00 in/hr0.0 mm/hr 0.00 in0.0 mm
01:29 PM 70.1°F21.2°C 54.7°F12.6°C 58% - N16091.8 kmh N -- 29.89 in1012.2 mb 0.00 in0.0 mm 0.00 in/hr0.0 mm/hr 0.00 in0.0 mm
01:24 PM 69.9°F21.1°C 54.5°F12.5°C 58% - N16091.8 kmh N -- 29.89 in1012.2 mb 0.00 in0.0 mm 0.00 in/hr0.0 mm/hr 0.00 in0.0 mm
01:19 PM 69.4°F20.8°C 54.5°F12.5°C 59% - N16091.8 kmh N -- 29.90 in1012.5 mb 0.00 in0.0 mm 0.00 in/hr0.0 mm/hr 0.00 in0.0 mm
01:14 PM 69.4°F20.8°C 54.5°F12.5°C 58% - N16091.8 kmh N -- 29.90 in1012.5 mb 0.00 in0.0 mm 0.00 in/hr0.0 mm/hr 0.00 in0.0 mm
01:09 PM 69.0°F20.6°C 54.1°F12.3°C 59% - N16091.8 kmh N -- 29.90 in1012.5 mb 0.00 in0.0 mm 0.00 in/hr0.0 mm/hr 0.00 in0.0 mm
01:04 PM 68.7°F20.4°C 53.8°F12.1°C 59% - N16091.8 kmh N -- 29.90 in1012.5 mb 0.00 in0.0 mm 0.00 in/hr0.0 mm/hr 0.00 in0.0 mm
12:59 PM 68.5°F20.3°C 54.1°F12.3°C 60% - N16091.8 kmh N -- 29.90 in1012.5 mb 0.00 in0.0 mm 0.00 in/hr0.0 mm/hr 0.00 in0.0 mm
12:54 PM 68.5°F20.3°C 54.1°F12.3°C 60% - N16091.8 kmh N -- 29.91 in1012.9 mb 0.00 in0.0 mm 0.00 in/hr0.0 mm/hr 0.00 in0.0 mm
12:49 PM 68.0°F20.0°C 54.0°F12.2°C 61% - N16091.8 kmh N -- 29.91 in1012.9 mb 0.00 in0.0 mm 0.00 in/hr0.0 mm/hr 0.00 in0.0 mm
12:44 PM 67.8°F19.9°C 53.8°F12.1°C 61% - N16091.8 kmh N -- 29.91 in1012.9 mb 0.00 in0.0 mm 0.00 in/hr0.0 mm/hr 0.00 in0.0 mm
12:39 PM 67.8°F19.9°C 53.8°F12.1°C 61% - N16091.8 kmh N -- 29.91 in1012.9 mb 0.00 in0.0 mm 0.00 in/hr0.0 mm/hr 0.00 in0.0 mm
12:34 PM 67.6°F19.8°C 54.1°F12.3°C 62% - N16091.8 kmh N -- 29.91 in1012.9 mb 0.00 in0.0 mm 0.00 in/hr0.0 mm/hr 0.00 in0.0 mm
12:29 PM 67.6°F19.8°C 54.1°F12.3°C 62% - N16091.8 kmh N -- 29.91 in1012.9 mb 0.00 in0.0 mm 0.00 in/hr0.0 mm/hr 0.00 in0.0 mm
12:24 PM 67.2°F19.6°C 54.2°F12.3°C 62% - N16091.8 kmh N -- 29.91 in1012.9 mb 0.00 in0.0 mm 0.00 in/hr0.0 mm/hr 0.00 in0.0 mm
12:19 PM 67.2°F19.6°C 54.2°F12.3°C 63% - N16091.8 kmh N -- 29.92 in1013.2 mb 0.00 in0.0 mm 0.00 in/hr0.0 mm/hr 0.00 in0.0 mm
12:14 PM 67.1°F19.5°C 54.0°F12.2°C 63% - N16091.8 kmh N -- 29.92 in1013.2 mb 0.00 in0.0 mm 0.00 in/hr0.0 mm/hr 0.00 in0.0 mm
12:09 PM 66.9°F19.4°C 53.8°F12.1°C 63% - N16091.8 kmh N -- 29.92 in1013.2 mb 0.00 in0.0 mm 0.00 in/hr0.0 mm/hr 0.00 in0.0 mm
12:04 PM 66.5°F19.2°C 53.9°F12.2°C 64% - N16091.8 kmh N -- 29.92 in1013.2 mb 0.00 in0.0 mm 0.00 in/hr0.0 mm/hr 0.00 in0.0 mm
11:59 AM 66.5°F19.2°C 53.9°F12.2°C 64% - N16091.8 kmh N -- 29.92 in1013.2 mb 0.00 in0.0 mm 0.00 in/hr0.0 mm/hr 0.00 in0.0 mm
11:54 AM 66.3°F19.1°C 54.2°F12.3°C 65% - N16091.8 kmh N -- 29.92 in1013.2 mb 0.00 in0.0 mm 0.00 in/hr0.0 mm/hr 0.00 in0.0 mm
11:49 AM 66.0°F18.9°C 53.8°F12.1°C 65% - N16091.8 kmh N -- 29.92 in1013.2 mb 0.00 in0.0 mm 0.00 in/hr0.0 mm/hr 0.00 in0.0 mm
11:44 AM 65.8°F18.8°C 54.5°F12.5°C 66% - N16091.8 kmh N -- 29.92 in1013.2 mb 0.00 in0.0 mm 0.00 in/hr0.0 mm/hr 0.00 in0.0 mm
11:39 AM 65.8°F18.8°C 54.5°F12.5°C 66% - N16091.8 kmh N -- 29.92 in1013.2 mb 0.00 in0.0 mm 0.00 in/hr0.0 mm/hr 0.00 in0.0 mm
11:33 AM 65.6°F18.7°C 54.3°F12.4°C 67% - N16091.8 kmh N -- 29.92 in1013.2 mb 0.00 in0.0 mm 0.00 in/hr0.0 mm/hr 0.00 in0.0 mm
11:29 AM 65.4°F18.6°C 53.7°F12.1°C 66% - N16091.8 kmh N -- 29.93 in1013.5 mb 0.00 in0.0 mm 0.00 in/hr0.0 mm/hr 0.00 in0.0 mm
11:24 AM 65.3°F18.5°C 54.0°F12.2°C 67% - N16091.8 kmh N -- 29.92 in1013.2 mb 0.00 in0.0 mm 0.00 in/hr0.0 mm/hr 0.00 in0.0 mm
11:19 AM 64.9°F18.3°C 54.1°F12.3°C 68% - N16091.8 kmh N -- 29.93 in1013.5 mb 0.00 in0.0 mm 0.00 in/hr0.0 mm/hr 0.00 in0.0 mm
11:14 AM 64.7°F18.2°C 53.9°F12.2°C 68% - N16091.8 kmh N -- 29.93 in1013.5 mb 0.00 in0.0 mm 0.00 in/hr0.0 mm/hr 0.00 in0.0 mm
11:08 AM 64.5°F18.1°C 54.2°F12.3°C 69% - N16091.8 kmh N -- 29.93 in1013.5 mb 0.00 in0.0 mm 0.00 in/hr0.0 mm/hr 0.00 in0.0 mm
11:04 AM 64.2°F17.9°C 53.8°F12.1°C 69% - N16091.8 kmh N -- 29.93 in1013.5 mb 0.00 in0.0 mm 0.00 in/hr0.0 mm/hr 0.00 in0.0 mm
10:58 AM 64.0°F17.8°C 54.1°F12.3°C 70% - N16091.8 kmh N -- 29.93 in1013.5 mb 0.00 in0.0 mm 0.00 in/hr0.0 mm/hr 0.00 in0.0 mm
10:53 AM 63.6°F17.6°C 53.7°F12.1°C 70% - N16091.8 kmh N -- 29.93 in1013.5 mb 0.00 in0.0 mm 0.00 in/hr0.0 mm/hr 0.00 in0.0 mm
10:48 AM 63.3°F17.4°C 53.7°F12.1°C 71% - N16091.8 kmh N -- 29.93 in1013.5 mb 0.00 in0.0 mm 0.00 in/hr0.0 mm/hr 0.00 in0.0 mm
10:43 AM 62.9°F17.2°C 53.7°F12.1°C 72% - N16091.8 kmh N -- 29.93 in1013.5 mb 0.00 in0.0 mm 0.00 in/hr0.0 mm/hr 0.00 in0.0 mm
10:38 AM 62.7°F17.1°C 53.6°F12.0°C 72% - N16091.8 kmh N -- 29.93 in1013.5 mb 0.00 in0.0 mm 0.00 in/hr0.0 mm/hr 0.00 in0.0 mm
10:33 AM 62.2°F16.8°C 53.4°F11.9°C 72% - N16091.8 kmh N -- 29.94 in1013.9 mb 0.00 in0.0 mm 0.00 in/hr0.0 mm/hr 0.00 in0.0 mm
10:28 AM 62.0°F16.7°C 53.2°F11.8°C 73% - N16091.8 kmh N -- 29.93 in1013.5 mb 0.00 in0.0 mm 0.00 in/hr0.0 mm/hr 0.00 in0.0 mm
10:23 AM 61.7°F16.5°C 53.3°F11.8°C 74% - N16091.8 kmh N -- 29.94 in1013.9 mb 0.00 in0.0 mm 0.00 in/hr0.0 mm/hr 0.00 in0.0 mm
10:18 AM 61.1°F16.2°C 53.2°F11.8°C 75% - N16091.8 kmh N -- 29.94 in1013.9 mb 0.00 in0.0 mm 0.00 in/hr0.0 mm/hr 0.00 in0.0 mm
10:13 AM 60.9°F16.1°C 53.4°F11.9°C 76% - N16091.8 kmh N -- 29.93 in1013.5 mb 0.00 in0.0 mm 0.00 in/hr0.0 mm/hr 0.00 in0.0 mm
10:08 AM 60.4°F15.8°C 52.8°F11.6°C 76% - N16091.8 kmh N -- 29.93 in1013.5 mb 0.00 in0.0 mm 0.00 in/hr0.0 mm/hr 0.00 in0.0 mm
10:03 AM 60.0°F15.6°C 52.5°F11.4°C 76% - N16091.8 kmh N -- 29.93 in1013.5 mb 0.00 in0.0 mm 0.00 in/hr0.0 mm/hr 0.00 in0.0 mm
09:58 AM 59.7°F15.4°C 52.5°F11.4°C 77% - N16091.8 kmh N -- 29.93 in1013.5 mb 0.00 in0.0 mm 0.00 in/hr0.0 mm/hr 0.00 in0.0 mm
09:53 AM 59.3°F15.2°C 52.1°F11.2°C 77% - N16091.8 kmh N -- 29.92 in1013.2 mb 0.00 in0.0 mm 0.00 in/hr0.0 mm/hr 0.00 in0.0 mm
09:48 AM 59.0°F15.0°C 51.8°F11.0°C 77% - N16091.8 kmh N -- 29.92 in1013.2 mb 0.00 in0.0 mm 0.00 in/hr0.0 mm/hr 0.00 in0.0 mm
09:43 AM 58.6°F14.8°C 51.8°F11.0°C 77% - N16091.8 kmh N -- 29.92 in1013.2 mb 0.00 in0.0 mm 0.00 in/hr0.0 mm/hr 0.00 in0.0 mm
09:38 AM 58.2°F14.6°C 51.4°F10.8°C 78% - N16091.8 kmh N -- 29.92 in1013.2 mb 0.00 in0.0 mm 0.00 in/hr0.0 mm/hr 0.00 in0.0 mm
09:33 AM 57.9°F14.4°C 51.0°F10.6°C 78% - N16091.8 kmh N -- 29.92 in1013.2 mb 0.00 in0.0 mm 0.00 in/hr0.0 mm/hr 0.00 in0.0 mm
09:28 AM 57.7°F14.3°C 50.9°F10.5°C 78% - N16091.8 kmh N -- 29.92 in1013.2 mb 0.00 in0.0 mm 0.00 in/hr0.0 mm/hr 0.00 in0.0 mm
09:23 AM 57.3°F14.1°C 50.5°F10.3°C 78% - N16091.8 kmh N -- 29.92 in1013.2 mb 0.00 in0.0 mm 0.00 in/hr0.0 mm/hr 0.00 in0.0 mm
09:18 AM 56.8°F13.8°C 50.0°F10.0°C 78% - N16091.8 kmh N -- 29.92 in1013.2 mb 0.00 in0.0 mm 0.00 in/hr0.0 mm/hr 0.00 in0.0 mm
09:13 AM 56.4°F13.6°C 49.6°F9.8°C 78% - N16091.8 kmh N -- 29.92 in1013.2 mb 0.00 in0.0 mm 0.00 in/hr0.0 mm/hr 0.00 in0.0 mm
09:08 AM 56.3°F13.5°C 49.4°F9.7°C 78% - N16091.8 kmh N -- 29.92 in1013.2 mb 0.00 in0.0 mm 0.00 in/hr0.0 mm/hr 0.00 in0.0 mm
09:03 AM 55.7°F13.2°C 49.2°F9.6°C 79% - N16091.8 kmh N -- 29.92 in1013.2 mb 0.00 in0.0 mm 0.00 in/hr0.0 mm/hr 0.00 in0.0 mm
08:58 AM 55.5°F13.1°C 49.1°F9.5°C 79% - N16091.8 kmh N -- 29.92 in1013.2 mb 0.00 in0.0 mm 0.00 in/hr0.0 mm/hr 0.00 in0.0 mm
08:53 AM 55.0°F12.8°C 48.6°F9.2°C 79% - N16091.8 kmh N -- 29.92 in1013.2 mb 0.00 in0.0 mm 0.00 in/hr0.0 mm/hr 0.00 in0.0 mm
08:48 AM 54.6°F12.6°C 48.2°F9.0°C 79% - N16091.8 kmh N -- 29.92 in1013.2 mb 0.00 in0.0 mm 0.00 in/hr0.0 mm/hr 0.00 in0.0 mm
08:43 AM 54.3°F12.4°C 47.9°F8.8°C 79% - N16091.8 kmh N -- 29.92 in1013.2 mb 0.00 in0.0 mm 0.00 in/hr0.0 mm/hr 0.00 in0.0 mm
08:38 AM 53.9°F12.2°C 47.6°F8.7°C 79% - N16091.8 kmh N -- 29.92 in1013.2 mb 0.00 in0.0 mm 0.00 in/hr0.0 mm/hr 0.00 in0.0 mm
08:33 AM 53.4°F11.9°C 47.1°F8.4°C 79% - N16091.8 kmh N -- 29.91 in1012.9 mb 0.00 in0.0 mm 0.00 in/hr0.0 mm/hr 0.00 in0.0 mm
08:28 AM 53.2°F11.8°C 46.9°F8.3°C 79% - N16091.8 kmh N -- 29.92 in1013.2 mb 0.00 in0.0 mm 0.00 in/hr0.0 mm/hr 0.00 in0.0 mm
08:23 AM 52.8°F11.6°C 46.9°F8.3°C 80% - N16091.8 kmh N -- 29.92 in1013.2 mb 0.00 in0.0 mm 0.00 in/hr0.0 mm/hr 0.00 in0.0 mm
08:18 AM 52.5°F11.4°C 46.5°F8.1°C 80% - N16091.8 kmh N -- 29.92 in1013.2 mb 0.00 in0.0 mm 0.00 in/hr0.0 mm/hr 0.00 in0.0 mm
08:13 AM 52.1°F11.2°C 45.8°F7.7°C 79% - N16091.8 kmh N -- 29.91 in1012.9 mb 0.00 in0.0 mm 0.00 in/hr0.0 mm/hr 0.00 in0.0 mm
08:08 AM 51.9°F11.1°C 45.6°F7.6°C 79% - N16091.8 kmh N -- 29.91 in1012.9 mb 0.00 in0.0 mm 0.00 in/hr0.0 mm/hr 0.00 in0.0 mm
08:03 AM 51.6°F10.9°C 45.3°F7.4°C 79% - N16091.8 kmh N -- 29.91 in1012.9 mb 0.00 in0.0 mm 0.00 in/hr0.0 mm/hr 0.00 in0.0 mm
07:58 AM 51.4°F10.8°C 45.1°F7.3°C 79% - N16091.8 kmh N -- 29.91 in1012.9 mb 0.00 in0.0 mm 0.00 in/hr0.0 mm/hr 0.00 in0.0 mm
07:53 AM 51.4°F10.8°C 45.1°F7.3°C 79% - N16091.8 kmh N -- 29.91 in1012.9 mb 0.00 in0.0 mm 0.00 in/hr0.0 mm/hr 0.00 in0.0 mm
07:48 AM 51.4°F10.8°C 45.1°F7.3°C 79% - N16091.8 kmh N -- 29.91 in1012.9 mb 0.00 in0.0 mm 0.00 in/hr0.0 mm/hr 0.00 in0.0 mm
07:43 AM 51.4°F10.8°C 45.1°F7.3°C 79% - N16091.8 kmh N -- 29.91 in1012.9 mb 0.00 in0.0 mm 0.00 in/hr0.0 mm/hr 0.00 in0.0 mm
07:37 AM 51.2°F10.7°C 44.9°F7.2°C 79% - N16091.8 kmh N -- 29.91 in1012.9 mb 0.00 in0.0 mm 0.00 in/hr0.0 mm/hr 0.00 in0.0 mm
07:32 AM 51.2°F10.7°C 44.9°F7.2°C 79% - N16091.8 kmh N -- 29.91 in1012.9 mb 0.00 in0.0 mm 0.00 in/hr0.0 mm/hr 0.00 in0.0 mm
07:28 AM 51.0°F10.6°C 44.8°F7.1°C 79% - N16091.8 kmh N -- 29.91 in1012.9 mb 0.00 in0.0 mm 0.00 in/hr0.0 mm/hr 0.00 in0.0 mm
07:23 AM 51.0°F10.6°C 44.8°F7.1°C 79% - N16091.8 kmh N -- 29.91 in1012.9 mb 0.00 in0.0 mm 0.00 in/hr0.0 mm/hr 0.00 in0.0 mm
07:18 AM 51.0°F10.6°C 44.8°F7.1°C 79% - N16091.8 kmh N -- 29.91 in1012.9 mb 0.00 in0.0 mm 0.00 in/hr0.0 mm/hr 0.00 in0.0 mm
07:13 AM 51.0°F10.6°C 44.8°F7.1°C 79% - N16091.8 kmh N -- 29.91 in1012.9 mb 0.00 in0.0 mm 0.00 in/hr0.0 mm/hr 0.00 in0.0 mm
07:07 AM 51.2°F10.7°C 44.9°F7.2°C 79% - N16091.8 kmh N -- 29.91 in1012.9 mb 0.00 in0.0 mm 0.00 in/hr0.0 mm/hr 0.00 in0.0 mm
07:02 AM 51.4°F10.8°C 45.1°F7.3°C 79% - N16091.8 kmh N -- 29.90 in1012.5 mb 0.00 in0.0 mm 0.00 in/hr0.0 mm/hr 0.00 in0.0 mm
06:57 AM 51.4°F10.8°C 45.1°F7.3°C 79% - N16091.8 kmh N -- 29.90 in1012.5 mb 0.00 in0.0 mm 0.00 in/hr0.0 mm/hr 0.00 in0.0 mm
06:52 AM 51.2°F10.7°C 44.9°F7.2°C 79% - N16091.8 kmh N -- 29.91 in1012.9 mb 0.00 in0.0 mm 0.00 in/hr0.0 mm/hr 0.00 in0.0 mm
06:47 AM 51.4°F10.8°C 44.8°F7.1°C 79% - N16091.8 kmh N -- 29.90 in1012.5 mb 0.00 in0.0 mm 0.00 in/hr0.0 mm/hr 0.00 in0.0 mm
06:42 AM 51.4°F10.8°C 44.8°F7.1°C 79% - N16091.8 kmh N -- 29.90 in1012.5 mb 0.00 in0.0 mm 0.00 in/hr0.0 mm/hr 0.00 in0.0 mm
06:37 AM 51.4°F10.8°C 44.8°F7.1°C 79% - N16091.8 kmh N -- 29.90 in1012.5 mb 0.00 in0.0 mm 0.00 in/hr0.0 mm/hr 0.00 in0.0 mm
06:32 AM 51.4°F10.8°C 44.8°F7.1°C 79% - N16091.8 kmh N -- 29.91 in1012.9 mb 0.00 in0.0 mm 0.00 in/hr0.0 mm/hr 0.00 in0.0 mm
06:27 AM 51.4°F10.8°C 44.8°F7.1°C 79% - N16091.8 kmh N -- 29.91 in1012.9 mb 0.00 in0.0 mm 0.00 in/hr0.0 mm/hr 0.00 in0.0 mm
06:22 AM 51.4°F10.8°C 44.8°F7.1°C 79% - N16091.8 kmh N -- 29.91 in1012.9 mb 0.00 in0.0 mm 0.00 in/hr0.0 mm/hr 0.00 in0.0 mm
06:17 AM 51.4°F10.8°C 44.8°F7.1°C 79% - N16091.8 kmh N -- 29.91 in1012.9 mb 0.00 in0.0 mm 0.00 in/hr0.0 mm/hr 0.00 in0.0 mm
06:12 AM 51.4°F10.8°C 44.8°F7.1°C 79% - N16091.8 kmh N -- 29.91 in1012.9 mb 0.00 in0.0 mm 0.00 in/hr0.0 mm/hr 0.00 in0.0 mm
06:07 AM 51.4°F10.8°C 44.8°F7.1°C 79% - N16091.8 kmh N -- 29.91 in1012.9 mb 0.00 in0.0 mm 0.00 in/hr0.0 mm/hr 0.00 in0.0 mm
06:02 AM 51.4°F10.8°C 44.8°F7.1°C 79% - N16091.8 kmh N -- 29.91 in1012.9 mb 0.00 in0.0 mm 0.00 in/hr0.0 mm/hr 0.00 in0.0 mm
05:57 AM 51.4°F10.8°C 44.8°F7.1°C 78% - N16091.8 kmh N -- 29.91 in1012.9 mb 0.00 in0.0 mm 0.00 in/hr0.0 mm/hr 0.00 in0.0 mm
05:52 AM 51.6°F10.9°C 44.9°F7.2°C 78% - N16091.8 kmh N -- 29.91 in1012.9 mb 0.00 in0.0 mm 0.00 in/hr0.0 mm/hr 0.00 in0.0 mm
05:47 AM 51.6°F10.9°C 44.9°F7.2°C 78% - N16091.8 kmh N -- 29.91 in1012.9 mb 0.00 in0.0 mm 0.00 in/hr0.0 mm/hr 0.00 in0.0 mm
05:42 AM 51.6°F10.9°C 44.9°F7.2°C 78% - N16091.8 kmh N -- 29.90 in1012.5 mb 0.00 in0.0 mm 0.00 in/hr0.0 mm/hr 0.00 in0.0 mm
05:37 AM 51.8°F11.0°C 45.1°F7.3°C 78% - N16091.8 kmh N -- 29.90 in1012.5 mb 0.00 in0.0 mm 0.00 in/hr0.0 mm/hr 0.00 in0.0 mm
05:32 AM 51.9°F11.1°C 45.3°F7.4°C 78% - N16091.8 kmh N -- 29.90 in1012.5 mb 0.00 in0.0 mm 0.00 in/hr0.0 mm/hr 0.00 in0.0 mm
05:27 AM 51.9°F11.1°C 45.3°F7.4°C 78% - N16091.8 kmh N -- 29.90 in1012.5 mb 0.00 in0.0 mm 0.00 in/hr0.0 mm/hr 0.00 in0.0 mm
05:22 AM 52.1°F11.2°C 45.1°F7.3°C 78% - N16091.8 kmh N -- 29.90 in1012.5 mb 0.00 in0.0 mm 0.00 in/hr0.0 mm/hr 0.00 in0.0 mm
05:17 AM 52.1°F11.2°C 45.1°F7.3°C 77% - N16091.8 kmh N -- 29.90 in1012.5 mb 0.00 in0.0 mm 0.00 in/hr0.0 mm/hr 0.00 in0.0 mm
05:12 AM 52.3°F11.3°C 45.3°F7.4°C 77% - N16091.8 kmh N -- 29.90 in1012.5 mb 0.00 in0.0 mm 0.00 in/hr0.0 mm/hr 0.00 in0.0 mm
05:07 AM 52.3°F11.3°C 45.3°F7.4°C 77% - N16091.8 kmh N -- 29.90 in1012.5 mb 0.00 in0.0 mm 0.00 in/hr0.0 mm/hr 0.00 in0.0 mm
05:02 AM 52.3°F11.3°C 45.3°F7.4°C 77% - N16091.8 kmh N -- 29.90 in1012.5 mb 0.00 in0.0 mm 0.00 in/hr0.0 mm/hr 0.00 in0.0 mm
04:57 AM 52.3°F11.3°C 45.3°F7.4°C 77% - N16091.8 kmh N -- 29.90 in1012.5 mb 0.00 in0.0 mm 0.00 in/hr0.0 mm/hr 0.00 in0.0 mm
04:52 AM 52.3°F11.3°C 45.3°F7.4°C 77% - N16091.8 kmh N -- 29.89 in1012.2 mb 0.00 in0.0 mm 0.00 in/hr0.0 mm/hr 0.00 in0.0 mm
04:47 AM 52.3°F11.3°C 45.3°F7.4°C 77% - N16091.8 kmh N -- 29.89 in1012.2 mb 0.00 in0.0 mm 0.00 in/hr0.0 mm/hr 0.00 in0.0 mm
04:42 AM 52.5°F11.4°C 45.5°F7.5°C 77% - N16091.8 kmh N -- 29.89 in1012.2 mb 0.00 in0.0 mm 0.00 in/hr0.0 mm/hr 0.00 in0.0 mm
04:37 AM 52.5°F11.4°C 45.5°F7.5°C 77% - N16091.8 kmh N -- 29.90 in1012.5 mb 0.00 in0.0 mm 0.00 in/hr0.0 mm/hr 0.00 in0.0 mm
04:32 AM 52.7°F11.5°C 45.7°F7.6°C 77% - N16091.8 kmh N -- 29.89 in1012.2 mb 0.00 in0.0 mm 0.00 in/hr0.0 mm/hr 0.00 in0.0 mm
04:27 AM 52.7°F11.5°C 45.7°F7.6°C 77% - N16091.8 kmh N -- 29.90 in1012.5 mb 0.00 in0.0 mm 0.00 in/hr0.0 mm/hr 0.00 in0.0 mm
04:22 AM 52.7°F11.5°C 45.7°F7.6°C 77% - N16091.8 kmh N -- 29.89 in1012.2 mb 0.00 in0.0 mm 0.00 in/hr0.0 mm/hr 0.00 in0.0 mm
04:17 AM 52.7°F11.5°C 45.7°F7.6°C 77% - N16091.8 kmh N -- 29.89 in1012.2 mb 0.00 in0.0 mm 0.00 in/hr0.0 mm/hr 0.00 in0.0 mm
04:12 AM 52.7°F11.5°C 45.7°F7.6°C 77% - N16091.8 kmh N -- 29.89 in1012.2 mb 0.00 in0.0 mm 0.00 in/hr0.0 mm/hr 0.00 in0.0 mm
04:07 AM 52.7°F11.5°C 45.7°F7.6°C 77% - N16091.8 kmh N -- 29.89 in1012.2 mb 0.00 in0.0 mm 0.00 in/hr0.0 mm/hr 0.00 in0.0 mm
04:02 AM 52.5°F11.4°C 45.5°F7.5°C 77% - N16091.8 kmh N -- 29.89 in1012.2 mb 0.00 in0.0 mm 0.00 in/hr0.0 mm/hr 0.00 in0.0 mm
03:57 AM 52.7°F11.5°C 45.7°F7.6°C 77% - N16091.8 kmh N -- 29.90 in1012.5 mb 0.00 in0.0 mm 0.00 in/hr0.0 mm/hr 0.00 in0.0 mm
03:52 AM 52.7°F11.5°C 45.7°F7.6°C 77% - N16091.8 kmh N -- 29.90 in1012.5 mb 0.00 in0.0 mm 0.00 in/hr0.0 mm/hr 0.00 in0.0 mm
03:46 AM 52.5°F11.4°C 45.1°F7.3°C 76% - N16091.8 kmh N -- 29.90 in1012.5 mb 0.00 in0.0 mm 0.00 in/hr0.0 mm/hr 0.00 in0.0 mm
03:41 AM 52.5°F11.4°C 45.1°F7.3°C 76% - N16091.8 kmh N -- 29.90 in1012.5 mb 0.00 in0.0 mm 0.00 in/hr0.0 mm/hr 0.00 in0.0 mm
03:36 AM 52.7°F11.5°C 45.3°F7.4°C 76% - N16091.8 kmh N -- 29.90 in1012.5 mb 0.00 in0.0 mm 0.00 in/hr0.0 mm/hr 0.00 in0.0 mm
03:31 AM 52.8°F11.6°C 45.5°F7.5°C 76% - N16091.8 kmh N -- 29.90 in1012.5 mb 0.00 in0.0 mm 0.00 in/hr0.0 mm/hr 0.00 in0.0 mm
03:27 AM 52.8°F11.6°C 45.5°F7.5°C 76% - N16091.8 kmh N -- 29.90 in1012.5 mb 0.00 in0.0 mm 0.00 in/hr0.0 mm/hr 0.00 in0.0 mm
03:21 AM 52.8°F11.6°C 45.5°F7.5°C 76% - N16091.8 kmh N -- 29.90 in1012.5 mb 0.00 in0.0 mm 0.00 in/hr0.0 mm/hr 0.00 in0.0 mm
03:16 AM 53.0°F11.7°C 45.7°F7.6°C 76% - N16091.8 kmh N -- 29.90 in1012.5 mb 0.00 in0.0 mm 0.00 in/hr0.0 mm/hr 0.00 in0.0 mm
03:11 AM 53.2°F11.8°C 45.8°F7.7°C 76% - N16091.8 kmh N -- 29.90 in1012.5 mb 0.00 in0.0 mm 0.00 in/hr0.0 mm/hr 0.00 in0.0 mm
03:06 AM 53.2°F11.8°C 45.8°F7.7°C 76% - N16091.8 kmh N -- 29.90 in1012.5 mb 0.00 in0.0 mm 0.00 in/hr0.0 mm/hr 0.00 in0.0 mm
03:01 AM 53.2°F11.8°C 45.8°F7.7°C 76% - N16091.8 kmh N -- 29.91 in1012.9 mb 0.00 in0.0 mm 0.00 in/hr0.0 mm/hr 0.00 in0.0 mm
02:56 AM 53.4°F11.9°C 46.0°F7.8°C 76% - N16091.8 kmh N -- 29.91 in1012.9 mb 0.00 in0.0 mm 0.00 in/hr0.0 mm/hr 0.00 in0.0 mm
02:51 AM 53.4°F11.9°C 46.0°F7.8°C 76% - N16091.8 kmh N -- 29.91 in1012.9 mb 0.00 in0.0 mm 0.00 in/hr0.0 mm/hr 0.00 in0.0 mm
02:46 AM 53.4°F11.9°C 46.0°F7.8°C 76% - N16091.8 kmh N -- 29.91 in1012.9 mb 0.00 in0.0 mm 0.00 in/hr0.0 mm/hr 0.00 in0.0 mm
02:41 AM 53.6°F12.0°C 45.8°F7.7°C 75% - N16091.8 kmh N -- 29.91 in1012.9 mb 0.00 in0.0 mm 0.00 in/hr0.0 mm/hr 0.00 in0.0 mm
02:36 AM 53.6°F12.0°C 45.8°F7.7°C 75% - N16091.8 kmh N -- 29.91 in1012.9 mb 0.00 in0.0 mm 0.00 in/hr0.0 mm/hr 0.00 in0.0 mm
02:31 AM 53.7°F12.1°C 46.0°F7.8°C 75% - N16091.8 kmh N -- 29.91 in1012.9 mb 0.00 in0.0 mm 0.00 in/hr0.0 mm/hr 0.00 in0.0 mm
02:26 AM 53.7°F12.1°C 46.0°F7.8°C 75% - N16091.8 kmh N -- 29.91 in1012.9 mb 0.00 in0.0 mm 0.00 in/hr0.0 mm/hr 0.00 in0.0 mm
02:21 AM 53.7°F12.1°C 46.0°F7.8°C 75% - N16091.8 kmh N -- 29.91 in1012.9 mb 0.00 in0.0 mm 0.00 in/hr0.0 mm/hr 0.00 in0.0 mm
02:16 AM 53.7°F12.1°C 46.0°F7.8°C 75% - N16091.8 kmh N -- 29.92 in1013.2 mb 0.00 in0.0 mm 0.00 in/hr0.0 mm/hr 0.00 in0.0 mm
02:11 AM 53.9°F12.2°C 45.8°F7.7°C 74% - N16091.8 kmh N -- 29.92 in1013.2 mb 0.00 in0.0 mm 0.00 in/hr0.0 mm/hr 0.00 in0.0 mm
02:06 AM 53.9°F12.2°C 45.8°F7.7°C 74% - N16091.8 kmh N -- 29.92 in1013.2 mb 0.00 in0.0 mm 0.00 in/hr0.0 mm/hr 0.00 in0.0 mm
02:01 AM 54.1°F12.3°C 46.0°F7.8°C 74% - N16091.8 kmh N -- 29.92 in1013.2 mb 0.00 in0.0 mm 0.00 in/hr0.0 mm/hr 0.00 in0.0 mm
01:56 AM 54.1°F12.3°C 46.0°F7.8°C 74% - N16091.8 kmh N -- 29.92 in1013.2 mb 0.00 in0.0 mm 0.00 in/hr0.0 mm/hr 0.00 in0.0 mm
01:51 AM 54.3°F12.4°C 46.1°F7.8°C 74% - N16091.8 kmh N -- 29.92 in1013.2 mb 0.00 in0.0 mm 0.00 in/hr0.0 mm/hr 0.00 in0.0 mm
01:46 AM 54.3°F12.4°C 46.1°F7.8°C 74% - N16091.8 kmh N -- 29.92 in1013.2 mb 0.00 in0.0 mm 0.00 in/hr0.0 mm/hr 0.00 in0.0 mm
01:41 AM 54.5°F12.5°C 46.3°F7.9°C 74% - N16091.8 kmh N -- 29.92 in1013.2 mb 0.00 in0.0 mm 0.00 in/hr0.0 mm/hr 0.00 in0.0 mm
01:36 AM 54.6°F12.6°C 46.1°F7.8°C 74% - N16091.8 kmh N -- 29.92 in1013.2 mb 0.00 in0.0 mm 0.00 in/hr0.0 mm/hr 0.00 in0.0 mm
01:31 AM 54.6°F12.6°C 46.1°F7.8°C 74% - N16091.8 kmh N -- 29.92 in1013.2 mb 0.00 in0.0 mm 0.00 in/hr0.0 mm/hr 0.00 in0.0 mm
01:26 AM 54.6°F12.6°C 46.1°F7.8°C 74% - N16091.8 kmh N -- 29.92 in1013.2 mb 0.00 in0.0 mm 0.00 in/hr0.0 mm/hr 0.00 in0.0 mm
01:21 AM 54.6°F12.6°C 46.1°F7.8°C 73% - N16091.8 kmh N -- 29.92 in1013.2 mb 0.00 in0.0 mm 0.00 in/hr0.0 mm/hr 0.00 in0.0 mm
01:16 AM 54.8°F12.7°C 46.3°F7.9°C 73% - N16091.8 kmh N -- 29.92 in1013.2 mb 0.00 in0.0 mm 0.00 in/hr0.0 mm/hr 0.00 in0.0 mm
01:11 AM 54.6°F12.6°C 46.1°F7.8°C 73% - N16091.8 kmh N -- 29.92 in1013.2 mb 0.00 in0.0 mm 0.00 in/hr0.0 mm/hr 0.00 in0.0 mm
01:06 AM 55.0°F12.8°C 46.1°F7.8°C 73% - N16091.8 kmh N -- 29.92 in1013.2 mb 0.00 in0.0 mm 0.00 in/hr0.0 mm/hr 0.00 in0.0 mm
01:01 AM 55.0°F12.8°C 46.1°F7.8°C 73% - N16091.8 kmh N -- 29.91 in1012.9 mb 0.00 in0.0 mm 0.00 in/hr0.0 mm/hr 0.00 in0.0 mm
12:56 AM 55.2°F12.9°C 46.3°F7.9°C 72% - N16091.8 kmh N -- 29.92 in1013.2 mb 0.00 in0.0 mm 0.00 in/hr0.0 mm/hr 0.00 in0.0 mm
12:51 AM 55.2°F12.9°C 46.3°F7.9°C 72% - N16091.8 kmh N -- 29.92 in1013.2 mb 0.00 in0.0 mm 0.00 in/hr0.0 mm/hr 0.00 in0.0 mm
12:46 AM 55.5°F13.1°C 46.7°F8.2°C 72% - N16091.8 kmh N -- 29.92 in1013.2 mb 0.00 in0.0 mm 0.00 in/hr0.0 mm/hr 0.00 in0.0 mm
12:41 AM 55.5°F13.1°C 46.7°F8.2°C 72% - N16091.8 kmh N -- 29.92 in1013.2 mb 0.00 in0.0 mm 0.00 in/hr0.0 mm/hr 0.00 in0.0 mm
12:36 AM 55.7°F13.2°C 46.8°F8.2°C 72% - N16091.8 kmh N -- 29.92 in1013.2 mb 0.00 in0.0 mm 0.00 in/hr0.0 mm/hr 0.00 in0.0 mm
12:30 AM 55.9°F13.3°C 47.0°F8.3°C 72% - N16091.8 kmh N -- 29.92 in1013.2 mb 0.00 in0.0 mm 0.00 in/hr0.0 mm/hr 0.00 in0.0 mm
12:26 AM 55.9°F13.3°C 47.0°F8.3°C 72% - N16091.8 kmh N -- 29.92 in1013.2 mb 0.00 in0.0 mm 0.00 in/hr0.0 mm/hr 0.00 in0.0 mm
12:20 AM 55.9°F13.3°C 47.0°F8.3°C 72% - N16091.8 kmh N -- 29.92 in1013.2 mb 0.00 in0.0 mm 0.00 in/hr0.0 mm/hr 0.00 in0.0 mm
12:15 AM 56.1°F13.4°C 46.8°F8.2°C 71% - N16091.8 kmh N -- 29.92 in1013.2 mb 0.00 in0.0 mm 0.00 in/hr0.0 mm/hr 0.00 in0.0 mm
12:11 AM 56.1°F13.4°C 46.8°F8.2°C 71% - N16091.8 kmh N -- 29.92 in1013.2 mb 0.00 in0.0 mm 0.00 in/hr0.0 mm/hr 0.00 in0.0 mm
12:05 AM 56.3°F13.5°C 47.0°F8.3°C 71% - N16091.8 kmh N -- 29.92 in1013.2 mb 0.00 in0.0 mm 0.00 in/hr0.0 mm/hr 0.00 in0.0 mm
12:00 AM 56.4°F13.6°C 46.8°F8.2°C 71% - N16091.8 kmh N -- 29.92 in1013.2 mb 0.00 in0.0 mm 0.00 in/hr0.0 mm/hr 0.00 in0.0 mm